createdAt,value
2018-09-04T00:00:49.207Z,16.80
2018-09-04T00:03:16.855Z,16.43
2018-09-04T00:05:44.539Z,20.53
2018-09-04T00:08:12.198Z,16.20
2018-09-04T00:10:39.878Z,15.60
2018-09-04T00:13:07.599Z,16.50
2018-09-04T00:15:35.256Z,17.73
2018-09-04T00:18:02.971Z,16.13
2018-09-04T00:20:30.649Z,15.37
2018-09-04T00:22:58.433Z,16.50
2018-09-04T00:25:26.147Z,16.20
2018-09-04T00:27:53.799Z,16.93
2018-09-04T00:30:21.826Z,16.30
2018-09-04T00:32:49.440Z,16.17
2018-09-04T00:35:17.091Z,18.00
2018-09-04T00:37:45.063Z,15.17
2018-09-04T00:40:12.693Z,16.13
2018-09-04T00:42:40.399Z,22.00
2018-09-04T00:45:08.112Z,16.27
2018-09-04T00:47:35.818Z,16.53
2018-09-04T00:50:03.620Z,17.40
2018-09-04T00:52:31.314Z,16.17
2018-09-04T00:54:59.006Z,16.13
2018-09-04T00:57:26.679Z,16.53
2018-09-04T00:59:54.333Z,17.40
2018-09-04T01:02:22.074Z,18.37
2018-09-04T01:04:49.713Z,17.40
2018-09-04T01:07:18.524Z,16.97
2018-09-04T01:09:46.146Z,18.73
2018-09-04T01:12:13.812Z,16.00
2018-09-04T01:14:41.503Z,18.17
2018-09-04T01:17:09.157Z,19.40
2018-09-04T01:19:36.825Z,17.17
2018-09-04T01:22:04.771Z,16.47
2018-09-04T01:24:32.488Z,16.60
2018-09-04T01:27:00.207Z,16.77
2018-09-04T01:29:27.898Z,18.73
2018-09-04T01:31:55.965Z,16.07
2018-09-04T01:34:23.645Z,16.40
2018-09-04T01:36:51.254Z,15.37
2018-09-04T01:39:18.840Z,18.10
2018-09-04T01:41:46.584Z,16.40
2018-09-04T01:44:14.271Z,17.27
2018-09-04T01:46:41.925Z,18.83
2018-09-04T01:49:09.640Z,16.60
2018-09-04T01:51:37.290Z,16.17
2018-09-04T01:54:05.002Z,17.80
2018-09-04T01:56:32.644Z,16.57
2018-09-04T01:59:00.391Z,17.60
2018-09-04T02:01:28.100Z,16.83
2018-09-04T02:03:55.884Z,15.53
2018-09-04T02:06:23.364Z,16.63
2018-09-04T02:08:50.837Z,16.50
2018-09-04T02:11:18.307Z,17.73
2018-09-04T02:13:45.752Z,14.77
2018-09-04T02:16:13.258Z,17.90
2018-09-04T02:18:40.716Z,17.33
2018-09-04T02:21:08.198Z,16.37
2018-09-04T02:23:35.653Z,16.17
2018-09-04T02:26:03.164Z,15.27
2018-09-04T02:28:30.657Z,16.30
2018-09-04T02:30:58.227Z,17.20
2018-09-04T02:33:26.303Z,21.30
2018-09-04T02:35:53.816Z,16.07
2018-09-04T02:38:21.288Z,16.17
2018-09-04T02:40:48.778Z,16.57
2018-09-04T02:43:16.249Z,16.50
2018-09-04T02:45:43.740Z,17.30
2018-09-04T02:48:11.201Z,15.40
2018-09-04T02:50:38.701Z,17.27
2018-09-04T02:53:06.172Z,17.07
2018-09-04T02:55:33.660Z,15.50
2018-09-04T02:58:01.113Z,15.73
2018-09-04T03:00:28.572Z,16.63
2018-09-04T03:03:02.852Z,16.27
2018-09-04T03:05:30.300Z,16.73
2018-09-04T03:07:57.770Z,16.83
2018-09-04T03:10:25.243Z,17.57
2018-09-04T03:12:52.715Z,19.27
2018-09-04T03:15:20.176Z,18.20
2018-09-04T03:17:47.631Z,17.67
2018-09-04T03:20:15.100Z,16.30
2018-09-04T03:22:42.576Z,18.23
2018-09-04T03:25:10.048Z,18.50
2018-09-04T03:27:37.589Z,18.10
2018-09-04T03:30:05.080Z,17.60
2018-09-04T03:32:32.560Z,16.70
2018-09-04T03:35:00.084Z,17.90
2018-09-04T03:37:27.595Z,19.03
2018-09-04T03:39:55.085Z,17.20
2018-09-04T03:42:22.590Z,17.73
2018-09-04T03:44:50.173Z,17.97
2018-09-04T03:47:17.887Z,17.47
2018-09-04T03:49:45.607Z,17.33
2018-09-04T03:52:13.417Z,16.97
2018-09-04T03:54:41.380Z,16.73
2018-09-04T03:57:08.840Z,16.00
2018-09-04T03:59:36.474Z,17.90
2018-09-04T04:02:03.940Z,16.83
2018-09-04T04:04:31.568Z,18.80
2018-09-04T04:06:59.137Z,18.90
2018-09-04T04:09:27.813Z,17.17
2018-09-04T04:11:55.408Z,17.30
2018-09-04T04:14:22.888Z,16.97
2018-09-04T04:16:50.518Z,18.30
2018-09-04T04:19:18.081Z,16.33
2018-09-04T04:21:45.705Z,20.60
2018-09-04T04:24:13.272Z,17.57
2018-09-04T04:26:40.895Z,19.50
2018-09-04T04:29:08.443Z,20.53
2018-09-04T04:31:36.008Z,19.97
2018-09-04T04:34:03.505Z,19.77
2018-09-04T04:36:31.040Z,20.23
2018-09-04T04:38:58.494Z,18.83
2018-09-04T04:41:26.813Z,19.33
2018-09-04T04:43:54.269Z,19.43
2018-09-04T04:46:21.725Z,17.87
2018-09-04T04:48:49.176Z,19.43
2018-09-04T04:51:16.717Z,19.03
2018-09-04T04:53:44.441Z,19.53
2018-09-04T04:56:12.067Z,20.50
2018-09-04T04:58:39.935Z,19.07
2018-09-04T05:01:11.905Z,19.97
2018-09-04T05:03:45.637Z,19.57
2018-09-04T05:06:13.291Z,18.87
2018-09-04T05:08:41.337Z,21.43
2018-09-04T05:11:08.953Z,19.40
2018-09-04T05:13:36.508Z,21.17
2018-09-04T05:16:04.539Z,21.63
2018-09-04T05:18:32.132Z,19.40
2018-09-04T05:20:59.962Z,18.73
2018-09-04T05:23:27.636Z,20.10
2018-09-04T05:25:55.113Z,19.70
2018-09-04T05:28:22.592Z,20.67
2018-09-04T05:30:50.149Z,22.37
2018-09-04T05:33:20.556Z,21.53
2018-09-04T05:35:51.012Z,19.87
2018-09-04T05:38:18.468Z,24.97
2018-09-04T05:40:45.942Z,22.03
2018-09-04T05:43:20.369Z,20.10
2018-09-04T05:45:47.866Z,20.70
2018-09-04T05:48:16.090Z,18.97
2018-09-04T05:50:43.637Z,22.77
2018-09-04T05:53:11.138Z,23.50
2018-09-04T05:55:38.911Z,19.47
2018-09-04T05:58:06.424Z,19.80
2018-09-04T06:00:36.140Z,19.40
2018-09-04T06:03:03.673Z,21.00
2018-09-04T06:05:31.204Z,21.73
2018-09-04T06:07:58.677Z,19.97
2018-09-04T06:10:26.183Z,20.63
2018-09-04T06:12:53.624Z,21.10
2018-09-04T06:15:21.101Z,22.70
2018-09-04T06:17:48.576Z,19.00
2018-09-04T06:20:16.033Z,19.90
2018-09-04T06:22:43.476Z,20.93
2018-09-04T06:25:10.972Z,20.27
2018-09-04T06:27:38.440Z,22.10
2018-09-04T06:30:06.491Z,18.53
2018-09-04T06:32:33.970Z,19.13
2018-09-04T06:35:01.435Z,19.30
2018-09-04T06:37:28.889Z,20.03
2018-09-04T06:39:56.401Z,20.30
2018-09-04T06:42:23.989Z,18.90
2018-09-04T06:44:51.462Z,18.73
2018-09-04T06:47:18.960Z,22.30
2018-09-04T06:49:46.391Z,18.40
2018-09-04T06:52:13.860Z,18.70
2018-09-04T06:54:41.380Z,19.87
2018-09-04T06:57:09.166Z,19.30
2018-09-04T06:59:36.696Z,21.00
2018-09-04T07:02:04.175Z,20.23
2018-09-04T07:04:31.702Z,18.67
2018-09-04T07:06:59.176Z,19.30
2018-09-04T07:09:27.605Z,18.47
2018-09-04T07:11:55.049Z,19.27
2018-09-04T07:14:22.494Z,19.90
2018-09-04T07:16:49.963Z,19.80
2018-09-04T07:19:18.908Z,19.90
2018-09-04T07:21:46.687Z,23.03
2018-09-04T07:24:14.683Z,20.70
2018-09-04T07:26:42.405Z,21.37
2018-09-04T07:29:10.168Z,19.17
2018-09-04T07:31:37.636Z,22.30
2018-09-04T07:34:05.241Z,25.17
2018-09-04T07:36:32.801Z,23.87
2018-09-04T07:39:00.197Z,24.10
2018-09-04T07:41:27.891Z,22.30
2018-09-04T07:43:55.324Z,25.53
2018-09-04T07:46:22.805Z,28.23
2018-09-04T07:48:50.368Z,27.20
2018-09-04T07:51:17.853Z,25.93
2018-09-04T07:53:45.356Z,24.77
2018-09-04T07:56:13.206Z,27.50
2018-09-04T07:58:40.638Z,25.00
2018-09-04T08:01:08.157Z,23.77
2018-09-04T08:03:35.621Z,24.97
2018-09-04T08:06:09.929Z,22.87
2018-09-04T08:08:37.449Z,22.43
2018-09-04T08:11:05.247Z,21.30
2018-09-04T08:13:32.702Z,21.13
2018-09-04T08:16:00.265Z,23.67
2018-09-04T08:18:27.757Z,23.00
2018-09-04T08:20:55.315Z,21.43
2018-09-04T08:23:22.723Z,21.50
2018-09-04T08:25:50.182Z,22.00
2018-09-04T08:28:17.641Z,20.63
2018-09-04T08:30:45.124Z,25.60
2018-09-04T08:33:12.733Z,26.00
2018-09-04T08:35:40.204Z,26.37
2018-09-04T08:38:07.625Z,26.20
2018-09-04T08:40:35.168Z,21.80
2018-09-04T08:43:02.659Z,22.70
2018-09-04T08:45:31.207Z,25.70
2018-09-04T08:48:00.085Z,28.37
2018-09-04T08:50:28.223Z,24.23
2018-09-04T08:52:55.652Z,25.97
2018-09-04T08:55:23.226Z,23.33
2018-09-04T08:57:50.685Z,23.60
2018-09-04T09:00:18.135Z,23.37
2018-09-04T09:02:45.672Z,26.00
2018-09-04T09:05:13.136Z,25.20
2018-09-04T09:07:40.597Z,26.63
2018-09-04T09:10:08.161Z,25.00
2018-09-04T09:12:35.579Z,27.17
2018-09-04T09:15:03.065Z,31.90
2018-09-04T09:17:30.508Z,32.00
2018-09-04T09:19:58.087Z,29.70
2018-09-04T09:22:25.580Z,31.53
2018-09-04T09:24:53.057Z,32.07
2018-09-04T09:27:20.677Z,37.10
2018-09-04T09:29:48.231Z,36.37
2018-09-04T09:32:15.724Z,34.63
2018-09-04T09:34:43.216Z,32.13
2018-09-04T09:37:11.045Z,33.90
2018-09-04T09:39:38.541Z,29.93
2018-09-04T09:42:06.300Z,33.03
2018-09-04T09:44:33.894Z,32.60
2018-09-04T09:47:02.572Z,32.13
2018-09-04T09:49:31.136Z,32.40
2018-09-04T09:51:58.855Z,30.67
2018-09-04T09:54:26.467Z,35.10
2018-09-04T09:56:53.980Z,35.37
2018-09-04T09:59:21.467Z,35.53
2018-09-04T10:01:57.368Z,37.40
2018-09-04T10:04:25.808Z,35.63
2018-09-04T10:06:53.269Z,35.10
2018-09-04T10:09:21.295Z,35.23
2018-09-04T10:11:48.782Z,35.23
2018-09-04T10:14:16.318Z,34.43
2018-09-04T10:16:43.853Z,36.20
2018-09-04T10:19:11.363Z,38.13
2018-09-04T10:21:38.831Z,34.80
2018-09-04T10:24:06.362Z,34.33
2018-09-04T10:26:33.938Z,33.03
2018-09-04T10:29:01.283Z,36.60
2018-09-04T10:31:28.996Z,33.83
2018-09-04T10:33:56.488Z,36.57
2018-09-04T10:36:23.966Z,34.50
2018-09-04T10:38:56.032Z,37.53
2018-09-04T10:41:23.501Z,35.93
2018-09-04T10:43:51.096Z,34.00
2018-09-04T10:46:18.548Z,33.50
2018-09-04T10:48:46.136Z,33.70
2018-09-04T10:51:13.687Z,36.20
2018-09-04T10:53:41.129Z,35.80
2018-09-04T10:56:08.664Z,33.40
2018-09-04T10:58:36.354Z,32.13
2018-09-04T11:01:03.913Z,35.33
2018-09-04T11:03:31.539Z,30.17
2018-09-04T11:05:59.159Z,34.40
2018-09-04T11:08:26.806Z,31.30
2018-09-04T11:10:54.375Z,32.53
2018-09-04T11:13:21.941Z,33.47
2018-09-04T11:15:49.566Z,31.83
2018-09-04T11:18:17.069Z,34.03
2018-09-04T11:20:44.789Z,30.93
2018-09-04T11:23:12.271Z,35.77
2018-09-04T11:25:39.778Z,31.47
2018-09-04T11:28:07.480Z,29.40
2018-09-04T11:30:35.014Z,32.30
2018-09-04T11:33:02.598Z,33.40
2018-09-04T11:35:30.250Z,30.90
2018-09-04T11:37:57.833Z,27.80
2018-09-04T11:40:25.442Z,30.03
2018-09-04T11:42:53.044Z,30.87
2018-09-04T11:45:20.569Z,33.37
2018-09-04T11:47:48.077Z,31.03
2018-09-04T11:50:15.621Z,30.73
2018-09-04T11:52:43.147Z,27.43
2018-09-04T11:55:11.172Z,28.23
2018-09-04T11:57:39.068Z,27.60
2018-09-04T12:00:08.520Z,28.80
2018-09-04T12:02:37.944Z,28.67
2018-09-04T12:05:05.502Z,25.97
2018-09-04T12:07:32.981Z,27.47
2018-09-04T12:12:35.273Z,26.30
2018-09-04T12:15:02.621Z,25.07
2018-09-04T12:17:30.100Z,25.43
2018-09-04T12:21:09.716Z,25.90
2018-09-04T12:23:37.333Z,26.03
2018-09-04T12:26:06.383Z,27.00
2018-09-04T12:28:33.873Z,23.83
2018-09-04T12:31:01.901Z,26.07
2018-09-04T12:33:29.589Z,22.63
2018-09-04T12:35:57.177Z,26.80
2018-09-04T12:38:27.476Z,23.90
2018-09-04T12:40:55.124Z,22.33
2018-09-04T12:43:22.699Z,25.00
2018-09-04T12:45:57.051Z,21.63
2018-09-04T12:48:26.455Z,25.07
2018-09-04T12:50:54.991Z,25.30
2018-09-04T12:53:23.056Z,22.70
2018-09-04T12:55:50.675Z,23.20
2018-09-04T12:58:18.118Z,24.97
2018-09-04T13:00:47.037Z,22.70
2018-09-04T13:03:15.912Z,23.23
2018-09-04T13:05:43.541Z,25.07
2018-09-04T13:08:11.584Z,21.93
2018-09-04T13:10:39.206Z,22.40
2018-09-04T13:13:06.709Z,22.40
2018-09-04T13:15:34.325Z,23.57
2018-09-04T13:18:01.823Z,20.30
2018-09-04T13:20:29.356Z,20.43
2018-09-04T13:22:56.974Z,19.97
2018-09-04T13:25:25.794Z,21.93
2018-09-04T13:27:53.370Z,23.13
2018-09-04T13:30:21.945Z,21.47
2018-09-04T13:32:49.657Z,21.77
2018-09-04T13:35:17.348Z,19.73
2018-09-04T13:37:44.985Z,20.10
2018-09-04T13:40:12.584Z,20.67
2018-09-04T13:42:40.862Z,20.03
2018-09-04T13:45:08.669Z,21.43
2018-09-04T13:47:36.458Z,22.40
2018-09-04T13:50:04.169Z,19.10
2018-09-04T13:52:32.306Z,19.83
2018-09-04T13:54:59.866Z,19.73
2018-09-04T13:57:28.524Z,19.77
2018-09-04T13:59:56.244Z,21.00
2018-09-04T14:02:23.913Z,16.60
2018-09-04T14:04:51.652Z,19.57
2018-09-04T14:07:19.212Z,18.97
2018-09-04T14:09:46.792Z,16.87
2018-09-04T14:12:14.279Z,17.03
2018-09-04T14:14:41.769Z,17.20
2018-09-04T14:17:12.240Z,17.03
2018-09-04T14:19:39.729Z,16.47
2018-09-04T14:22:07.322Z,16.37
2018-09-04T14:24:35.036Z,19.07
2018-09-04T14:27:02.627Z,16.20
2018-09-04T14:31:57.705Z,15.60
2018-09-04T14:34:25.392Z,14.43
2018-09-04T14:36:53.060Z,16.00
2018-09-04T14:39:20.525Z,14.63
2018-09-04T14:41:48.165Z,13.33
2018-09-04T14:44:15.729Z,12.20
2018-09-04T14:46:44.298Z,12.67
2018-09-04T14:49:12.133Z,13.43
2018-09-04T14:51:39.757Z,12.27
2018-09-04T14:54:07.442Z,12.10
2018-09-04T14:56:35.156Z,12.27
2018-09-04T14:59:02.860Z,11.73
2018-09-04T15:01:30.574Z,11.63
2018-09-04T15:03:58.032Z,11.43
2018-09-04T15:06:25.577Z,12.53
2018-09-04T15:08:53.020Z,12.60
2018-09-04T15:11:20.831Z,13.03
2018-09-04T15:13:48.730Z,11.90
2018-09-04T15:16:16.268Z,12.00
2018-09-04T15:18:43.705Z,10.53
2018-09-04T15:21:11.435Z,12.10
2018-09-04T15:23:39.146Z,11.57
2018-09-04T15:26:06.695Z,11.53
2018-09-04T15:28:34.289Z,12.83
2018-09-04T15:31:01.844Z,11.40
2018-09-04T15:33:30.169Z,10.83
2018-09-04T15:35:57.854Z,11.43
2018-09-04T15:38:25.805Z,12.53
2018-09-04T15:40:53.357Z,11.67
2018-09-04T15:43:21.319Z,11.13
2018-09-04T15:45:48.958Z,11.87
2018-09-04T15:48:22.329Z,11.40
2018-09-04T15:50:49.947Z,11.87
2018-09-04T15:53:17.548Z,10.70
2018-09-04T15:55:45.150Z,10.97
2018-09-04T15:58:12.765Z,12.23
2018-09-04T16:00:40.311Z,11.37
2018-09-04T16:03:07.899Z,11.77
2018-09-04T16:05:35.466Z,12.20
2018-09-04T16:08:03.014Z,11.30
2018-09-04T16:10:31.033Z,12.30
2018-09-04T16:12:58.677Z,11.60
2018-09-04T16:15:26.144Z,11.07
2018-09-04T16:17:53.792Z,13.00
2018-09-04T16:20:21.293Z,12.73
2018-09-04T16:22:48.975Z,11.83
2018-09-04T16:25:16.649Z,11.93
2018-09-04T16:27:44.470Z,11.87
2018-09-04T16:30:12.202Z,11.90
2018-09-04T16:32:39.798Z,10.60
2018-09-04T16:35:08.075Z,11.77
2018-09-04T16:37:35.923Z,11.40
2018-09-04T16:40:03.837Z,10.70
2018-09-04T16:42:31.298Z,11.53
2018-09-04T16:44:58.843Z,11.23
2018-09-04T16:47:26.348Z,11.00
2018-09-04T16:49:53.833Z,18.80
2018-09-04T16:52:21.311Z,14.90
2018-09-04T16:54:48.820Z,9.77
2018-09-04T16:57:16.388Z,9.40
2018-09-04T16:59:43.945Z,9.67
2018-09-04T17:02:11.412Z,9.83
2018-09-04T17:04:39.112Z,9.50
2018-09-04T17:07:07.248Z,8.90
2018-09-04T17:09:34.701Z,8.40
2018-09-04T17:12:02.277Z,9.63
2018-09-04T17:14:29.801Z,10.27
2018-09-04T17:16:57.330Z,9.50
2018-09-04T17:19:24.919Z,10.30
2018-09-04T17:21:52.556Z,10.83
2018-09-04T17:24:20.324Z,10.23
2018-09-04T17:26:47.795Z,9.80
2018-09-04T17:29:15.566Z,9.23
2018-09-04T17:31:43.085Z,9.83
2018-09-04T17:34:10.514Z,9.73
2018-09-04T17:36:37.977Z,8.87
2018-09-04T17:39:06.561Z,9.80
2018-09-04T17:41:34.277Z,8.90
2018-09-04T17:44:01.723Z,9.83
2018-09-04T17:46:29.258Z,9.37
2018-09-04T17:48:56.721Z,9.53
2018-09-04T17:51:24.388Z,8.40
2018-09-04T17:53:51.843Z,11.53
2018-09-04T17:56:19.452Z,8.30
2018-09-04T17:58:46.964Z,10.63
2018-09-04T18:01:14.453Z,8.13
2018-09-04T18:03:41.921Z,10.17
2018-09-04T18:06:09.374Z,9.00
2018-09-04T18:08:36.890Z,8.37
2018-09-04T18:11:04.385Z,8.40
2018-09-04T18:13:32.037Z,9.00
2018-09-04T18:15:59.555Z,8.80
2018-09-04T18:18:27.021Z,9.77
2018-09-04T18:20:54.596Z,8.47
2018-09-04T18:23:22.189Z,10.53
2018-09-04T18:25:49.673Z,9.30
2018-09-04T18:28:17.129Z,8.40
2018-09-04T18:30:44.648Z,9.80
2018-09-04T18:33:12.277Z,7.97
2018-09-04T18:35:39.772Z,9.27
2018-09-04T18:38:07.331Z,8.87
2018-09-04T18:40:34.821Z,8.27
2018-09-04T18:43:02.337Z,8.00
2018-09-04T18:45:42.489Z,7.90
2018-09-04T18:48:10.095Z,7.27
2018-09-04T18:50:37.616Z,8.10
2018-09-04T18:53:05.233Z,7.93
2018-09-04T18:55:32.744Z,8.80
2018-09-04T18:58:00.283Z,8.93
2018-09-04T19:00:27.740Z,9.53
2018-09-04T19:02:55.383Z,8.43
2018-09-04T19:05:23.162Z,8.30
2018-09-04T19:07:51.099Z,8.37
2018-09-04T19:10:18.974Z,8.90
2018-09-04T19:12:46.791Z,8.10
2018-09-04T19:15:14.945Z,7.93
2018-09-04T19:17:42.704Z,7.13
2018-09-04T19:20:10.651Z,7.70
2018-09-04T19:22:38.556Z,7.07
2018-09-04T19:25:07.275Z,8.37
2018-09-04T19:27:35.018Z,8.33
2018-09-04T19:30:02.620Z,7.00
2018-09-04T19:32:30.244Z,7.53
2018-09-04T19:34:58.114Z,7.17
2018-09-04T19:37:25.665Z,7.60
2018-09-04T19:39:53.238Z,7.80
2018-09-04T19:42:20.752Z,7.03
2018-09-04T19:44:48.309Z,7.50
2018-09-04T19:47:15.799Z,6.60
2018-09-04T19:49:43.342Z,8.00
2018-09-04T19:52:11.073Z,7.27
2018-09-04T19:54:38.890Z,10.57
2018-09-04T19:57:13.460Z,7.83
2018-09-04T19:59:40.930Z,6.83
2018-09-04T20:02:08.475Z,8.70
2018-09-04T20:04:35.937Z,7.00
2018-09-04T20:07:06.591Z,8.83
2018-09-04T20:09:34.101Z,8.83
2018-09-04T20:12:01.573Z,6.97
2018-09-04T20:14:29.080Z,6.40
2018-09-04T20:16:56.608Z,6.33
2018-09-04T20:19:24.060Z,6.43
2018-09-04T20:21:51.572Z,7.10
2018-09-04T20:24:18.992Z,6.30
2018-09-04T20:26:46.513Z,5.63
2018-09-04T20:29:13.965Z,7.83
2018-09-04T20:31:41.477Z,6.63
2018-09-04T20:34:08.920Z,6.40
2018-09-04T20:36:36.449Z,7.43
2018-09-04T20:39:04.338Z,7.70
2018-09-04T20:41:31.883Z,8.20
2018-09-04T20:43:59.422Z,7.20
2018-09-04T20:46:26.879Z,6.60
2018-09-04T20:48:54.352Z,6.70
2018-09-04T20:51:21.820Z,6.90
2018-09-04T20:53:49.364Z,9.43
2018-09-04T20:56:16.874Z,7.90
2018-09-04T20:58:55.844Z,7.70
2018-09-04T21:01:34.904Z,8.43
2018-09-04T21:04:13.944Z,8.70
2018-09-04T21:06:42.415Z,7.93
2018-09-04T21:09:23.577Z,7.10
2018-09-04T21:11:51.411Z,8.20
2018-09-04T21:14:18.947Z,6.93
2018-09-04T21:16:46.401Z,7.10
2018-09-04T21:19:13.912Z,7.87
2018-09-04T21:21:41.391Z,7.20
2018-09-04T21:24:09.280Z,6.60
2018-09-04T21:26:36.744Z,6.00
2018-09-04T21:29:04.359Z,11.60
2018-09-04T21:31:31.872Z,6.47
2018-09-04T21:33:59.376Z,7.47
2018-09-04T21:36:26.865Z,6.27
2018-09-04T21:38:54.401Z,9.80
2018-09-04T21:41:22.009Z,7.33
2018-09-04T21:43:49.490Z,7.20
2018-09-04T21:46:16.957Z,8.10
2018-09-04T21:48:44.424Z,7.57
2018-09-04T21:51:11.857Z,6.50
2018-09-04T21:53:39.394Z,12.20
2018-09-04T21:56:06.821Z,8.30
2018-09-04T21:58:34.300Z,6.53
2018-09-04T22:01:01.855Z,7.83
2018-09-04T22:03:29.264Z,8.03
2018-09-04T22:05:56.740Z,6.53
2018-09-04T22:08:24.208Z,7.67
2018-09-04T22:10:51.680Z,7.20
2018-09-04T22:13:19.142Z,8.33
2018-09-04T22:15:46.629Z,8.10
2018-09-04T22:18:14.096Z,9.53
2018-09-04T22:20:41.527Z,10.03
2018-09-04T22:23:09.035Z,7.40
2018-09-04T22:25:36.475Z,7.90
2018-09-04T22:28:03.989Z,7.90
2018-09-04T22:30:31.455Z,7.90
2018-09-04T22:32:59.039Z,7.73
2018-09-04T22:35:26.471Z,7.40
2018-09-04T22:37:53.885Z,8.20
2018-09-04T22:40:21.387Z,7.40
2018-09-04T22:42:48.935Z,8.63
2018-09-04T22:45:16.386Z,7.90
2018-09-04T22:47:43.908Z,7.90
2018-09-04T22:50:17.467Z,8.10
2018-09-04T22:52:44.912Z,8.10
2018-09-04T22:55:13.125Z,9.93
2018-09-04T22:57:41.216Z,8.40
2018-09-04T23:00:09.116Z,7.70
2018-09-04T23:02:36.613Z,9.10
2018-09-04T23:05:04.224Z,10.30
2018-09-04T23:07:31.665Z,8.33
2018-09-04T23:09:59.147Z,9.00
2018-09-04T23:12:26.658Z,8.13
2018-09-04T23:14:54.105Z,9.50
2018-09-04T23:17:21.551Z,8.63
2018-09-04T23:19:49.047Z,9.50
2018-09-04T23:22:16.625Z,9.07
2018-09-04T23:24:44.104Z,9.20
2018-09-04T23:27:11.567Z,9.90
2018-09-04T23:29:39.022Z,9.67
2018-09-04T23:32:06.480Z,8.63
2018-09-04T23:34:34.341Z,8.30
2018-09-04T23:37:01.798Z,9.33
2018-09-04T23:39:29.284Z,9.80
2018-09-04T23:41:56.955Z,8.20
2018-09-04T23:44:24.451Z,10.97
2018-09-04T23:46:51.902Z,10.50
2018-09-04T23:49:19.393Z,9.90
2018-09-04T23:51:46.857Z,9.53
2018-09-04T23:54:15.140Z,10.77
2018-09-04T23:56:42.596Z,11.57
2018-09-04T23:59:10.119Z,9.73
